KBCE/BCE METAR and TAF weather

Enter ICAO airport designator
Station Type Date Time Source
KBCE METAR 2021/05/11 01:53 UTC NOAA

KBCE 110153Z AUTO 33013KT 10SM FEW095 10/M09 A3005 RMK AO2 SLP105 T01001089


Station Type Date Time Source
KBCE Decoded METAR 2021/05/11 01:53 UTC NOAA

BRYCE CANYON AIRPORT, UT, United States (KBCE) 37-42N 112-09W 2312M
May 10, 2021 - 09:53 PM EDT / 2021.05.11 0153 UTC
Wind: from the NNW (330 degrees) at 15 MPH (13 KT):0
Visibility: 10 mile(s):0
Sky conditions: mostly clear
Temperature: 50.0 F (10.0 C)
Dew Point: 16.0 F (-8.9 C)
Relative Humidity: 25%
Pressure (altimeter): 30.05 in. Hg (1017 hPa)
ob: KBCE 110153Z AUTO 33013KT 10SM FEW095 10/M09 A3005 RMK AO2 SLP105 T01001089
cycle: 2

Station Type Date Time Source
KBCE TAF 2021/05/10 18:54 UTC NOAA

TAF COR KBCE 101750Z 1018/1118 30015G25KT P6SM FEW080
FM110300 31010KT P6SM SKC

Example: see airport list